Time;durP1;ratioP1;P1;durP2;ratioP2;P2;SDS_P1;SDS_P2;PMS_P1;PMS_P2;Temp;Humidity;BMP_temperature;BMP_pressure;BME280_temperature;BME280_humidity;BME280_pressure;Samples;Min_cycle;Max_cycle;Signal;HPM_P1;HPM_P2
2022/11/09 00:02:09;;;;;;;3.42;1.55;;;;;;;;;;4965772;28;20062;-83
2022/11/09 00:04:34;;;;;;;3.75;1.40;;;;;;;;;;4968931;28;20041;-83
2022/11/09 00:07:00;;;;;;;4.88;1.75;;;;;;;;;;4981118;28;20038;-82
2022/11/09 00:09:26;;;;;;;3.58;1.60;;;;;;;;;;4981236;28;20041;-83
2022/11/09 00:11:54;;;;;;;3.75;1.60;;;;;;;;;;4969784;28;20042;-83
2022/11/09 00:14:20;;;;;;;3.83;1.40;;;;;;;;;;4992258;28;20038;-83
2022/11/09 00:16:45;;;;;;;3.60;1.52;;;;;;;;;;4968045;28;20480;-83
2022/11/09 00:19:12;;;;;;;3.58;1.50;;;;;;;;;;4976463;28;20088;-82
2022/11/09 00:21:37;;;;;;;6.65;2.80;;;;;;;;;;4978341;28;20030;-82
2022/11/09 00:24:03;;;;;;;4.18;1.95;;;;;;;;;;4981331;28;20184;-83
2022/11/09 00:26:28;;;;;;;3.83;1.60;;;;;;;;;;4976071;28;20072;-83
2022/11/09 00:28:54;;;;;;;3.83;1.83;;;;;;;;;;4975742;28;20046;-83
2022/11/09 00:31:21;;;;;;;4.28;1.80;;;;;;;;;;4987361;28;20045;-83
2022/11/09 00:33:50;;;;;;;3.25;1.50;;;;;;;;;;4992080;28;20050;-83
2022/11/09 00:36:16;;;;;;;3.55;1.20;;;;;;;;;;4968816;28;20257;-83
2022/11/09 00:38:47;;;;;;;2.70;1.20;;;;;;;;;;4966776;28;20185;-83
2022/11/09 00:41:12;;;;;;;3.42;1.45;;;;;;;;;;4992177;28;20388;-83
2022/11/09 00:43:40;;;;;;;3.88;1.30;;;;;;;;;;4967129;28;20031;-83
2022/11/09 00:46:06;;;;;;;4.88;1.33;;;;;;;;;;4966510;28;20038;-83
2022/11/09 00:48:31;;;;;;;4.90;1.40;;;;;;;;;;4969710;28;20037;-83
2022/11/09 00:50:57;;;;;;;3.92;1.30;;;;;;;;;;4983099;28;20065;-83
2022/11/09 00:53:22;;;;;;;2.88;1.10;;;;;;;;;;4977623;28;20035;-82
2022/11/09 00:56:02;;;;;;;2.80;1.20;;;;;;;;;;4995762;28;20031;-83
2022/11/09 00:58:29;;;;;;;3.15;1.20;;;;;;;;;;4970285;28;20121;-83
2022/11/09 01:00:55;;;;;;;4.30;1.33;;;;;;;;;;4969568;28;20034;-83
2022/11/09 01:03:22;;;;;;;3.35;1.45;;;;;;;;;;4992239;28;20073;-83
2022/11/09 01:05:48;;;;;;;2.63;1.30;;;;;;;;;;4982140;28;20108;-82
2022/11/09 01:08:13;;;;;;;3.08;1.30;;;;;;;;;;4982430;28;20147;-83
2022/11/09 01:10:43;;;;;;;3.75;1.30;;;;;;;;;;4989605;28;20054;-82
2022/11/09 01:13:12;;;;;;;3.33;1.45;;;;;;;;;;4973453;28;20554;-82
2022/11/09 01:15:48;;;;;;;4.57;1.45;;;;;;;;;;4988830;28;20042;-81
2022/11/09 01:18:14;;;;;;;4.90;1.50;;;;;;;;;;4973319;28;20504;-83
2022/11/09 01:20:41;;;;;;;3.45;1.50;;;;;;;;;;4973804;28;20563;-83
2022/11/09 01:23:07;;;;;;;2.20;1.10;;;;;;;;;;4967367;28;20034;-82
2022/11/09 01:25:32;;;;;;;2.92;1.23;;;;;;;;;;4984069;28;20712;-83
2022/11/09 01:27:58;;;;;;;3.58;1.30;;;;;;;;;;4966453;28;20089;-82
2022/11/09 01:30:24;;;;;;;3.38;1.20;;;;;;;;;;4972531;28;20500;-82
2022/11/09 01:32:49;;;;;;;3.67;1.48;;;;;;;;;;4965621;28;20054;-82
2022/11/09 01:35:14;;;;;;;3.40;1.63;;;;;;;;;;4972976;28;20042;-82
2022/11/09 01:37:40;;;;;;;3.90;1.50;;;;;;;;;;4981030;28;20108;-82
2022/11/09 01:40:05;;;;;;;3.60;1.50;;;;;;;;;;4989156;28;20117;-82
2022/11/09 01:42:34;;;;;;;3.10;1.40;;;;;;;;;;4972489;28;20072;-82
2022/11/09 01:45:21;;;;;;;3.50;1.60;;;;;;;;;;4998581;28;20050;-82
2022/11/09 01:48:12;;;;;;;2.97;1.30;;;;;;;;;;4978143;28;20057;-82
2022/11/09 01:51:39;;;;;;;3.88;1.40;;;;;;;;;;4983693;28;20121;-82
2022/11/09 01:54:14;;;;;;;2.35;1.13;;;;;;;;;;4895622;29;20598;-83
2022/11/09 01:56:44;;;;;;;4.28;1.27;;;;;;;;;;4943226;28;20047;-83
2022/11/09 01:59:14;;;;;;;4.63;1.60;;;;;;;;;;4981447;28;20038;-82
2022/11/09 02:01:40;;;;;;;2.50;1.10;;;;;;;;;;4983510;28;20032;-82
2022/11/09 02:04:39;;;;;;;3.45;1.50;;;;;;;;;;4967755;28;20045;-83
2022/11/09 02:07:05;;;;;;;3.85;1.30;;;;;;;;;;4980320;28;20073;-83
2022/11/09 02:09:37;;;;;;;3.67;1.60;;;;;;;;;;4963546;28;20065;-83
2022/11/09 02:12:03;;;;;;;4.28;1.30;;;;;;;;;;4986580;28;20475;-83
2022/11/09 02:14:29;;;;;;;3.75;1.30;;;;;;;;;;4995394;28;20050;-83
2022/11/09 02:16:54;;;;;;;4.07;1.42;;;;;;;;;;4963821;28;20449;-83
2022/11/09 02:19:22;;;;;;;3.65;1.40;;;;;;;;;;4981366;28;20030;-83
2022/11/09 02:21:48;;;;;;;3.10;1.40;;;;;;;;;;4966438;28;20043;-83
2022/11/09 02:24:13;;;;;;;3.78;1.50;;;;;;;;;;4963217;28;20878;-82
2022/11/09 02:26:44;;;;;;;3.03;1.38;;;;;;;;;;4960955;28;20486;-82
2022/11/09 02:29:13;;;;;;;3.70;1.45;;;;;;;;;;4973387;28;20425;-82
2022/11/09 02:31:43;;;;;;;5.07;1.55;;;;;;;;;;4974449;28;20035;-82
2022/11/09 02:34:12;;;;;;;3.50;1.45;;;;;;;;;;4975182;28;20085;-82
2022/11/09 02:36:37;;;;;;;3.53;1.50;;;;;;;;;;4970105;28;20034;-82
2022/11/09 02:39:03;;;;;;;4.72;1.50;;;;;;;;;;4987569;28;20038;-83
2022/11/09 02:41:29;;;;;;;2.67;1.40;;;;;;;;;;4971210;28;20547;-83
2022/11/09 02:43:55;;;;;;;3.22;1.30;;;;;;;;;;4988791;28;20068;-83
2022/11/09 02:46:30;;;;;;;3.30;1.40;;;;;;;;;;4975831;28;20122;-83
2022/11/09 02:48:56;;;;;;;3.47;1.40;;;;;;;;;;4974115;28;20065;-83
2022/11/09 02:51:24;;;;;;;2.70;1.33;;;;;;;;;;4949359;28;20055;-83
2022/11/09 02:53:49;;;;;;;2.78;1.35;;;;;;;;;;4973216;28;20042;-83
2022/11/09 02:56:14;;;;;;;3.00;1.50;;;;;;;;;;4968639;28;20045;-83
2022/11/09 02:58:40;;;;;;;3.47;1.33;;;;;;;;;;4979097;28;20466;-83
2022/11/09 03:01:05;;;;;;;2.85;1.38;;;;;;;;;;4978438;28;20034;-83
2022/11/09 03:03:31;;;;;;;4.30;1.40;;;;;;;;;;4972402;28;20034;-83
2022/11/09 03:05:56;;;;;;;2.83;1.30;;;;;;;;;;4971495;28;20548;-83
2022/11/09 03:08:21;;;;;;;5.30;1.20;;;;;;;;;;4978045;28;20042;-83
2022/11/09 03:10:47;;;;;;;3.40;1.30;;;;;;;;;;4993378;28;20034;-83
2022/11/09 03:13:12;;;;;;;3.10;1.45;;;;;;;;;;4971126;28;20041;-83
2022/11/09 03:15:43;;;;;;;3.35;1.52;;;;;;;;;;4977095;28;20498;-83
2022/11/09 03:18:08;;;;;;;3.13;1.25;;;;;;;;;;4971831;28;20044;-83
2022/11/09 03:20:34;;;;;;;3.72;1.30;;;;;;;;;;4967285;28;20489;-84
2022/11/09 03:22:59;;;;;;;3.25;1.55;;;;;;;;;;4992951;28;20038;-83
2022/11/09 03:25:26;;;;;;;3.85;1.38;;;;;;;;;;4963516;28;20037;-83
2022/11/09 03:28:01;;;;;;;3.28;1.23;;;;;;;;;;4979799;28;20432;-83
2022/11/09 03:30:26;;;;;;;3.13;1.33;;;;;;;;;;4970769;28;20034;-83
2022/11/09 03:33:02;;;;;;;2.42;1.10;;;;;;;;;;4970749;28;20050;-83
2022/11/09 03:35:28;;;;;;;3.03;1.27;;;;;;;;;;4970936;28;20070;-81
2022/11/09 03:37:53;;;;;;;2.95;1.27;;;;;;;;;;4976595;28;20071;-81
2022/11/09 03:40:19;;;;;;;2.70;1.30;;;;;;;;;;4995181;28;20449;-81
2022/11/09 03:42:46;;;;;;;3.70;1.35;;;;;;;;;;4980859;28;20048;-83
2022/11/09 03:45:12;;;;;;;2.93;1.37;;;;;;;;;;4972655;28;20038;-82
2022/11/09 03:47:41;;;;;;;3.03;1.23;;;;;;;;;;4970127;28;20034;-83
2022/11/09 03:50:08;;;;;;;2.85;1.20;;;;;;;;;;4978274;28;20068;-83
2022/11/09 03:52:33;;;;;;;3.72;1.23;;;;;;;;;;4957256;28;20146;-82
2022/11/09 03:54:59;;;;;;;2.45;1.27;;;;;;;;;;4973774;28;20117;-82
2022/11/09 03:57:24;;;;;;;3.53;1.50;;;;;;;;;;4972081;28;20568;-82
2022/11/09 03:59:49;;;;;;;3.50;1.45;;;;;;;;;;4971396;28;20034;-82
2022/11/09 04:02:15;;;;;;;4.07;1.50;;;;;;;;;;4964263;28;20528;-82
2022/11/09 04:04:40;;;;;;;3.63;1.40;;;;;;;;;;4981792;28;20042;-82
2022/11/09 04:07:05;;;;;;;3.25;1.30;;;;;;;;;;4969528;28;20045;-81
2022/11/09 04:09:31;;;;;;;2.88;1.23;;;;;;;;;;4973202;28;20026;-82
2022/11/09 04:11:57;;;;;;;4.13;1.70;;;;;;;;;;4976753;28;20486;-82
2022/11/09 04:14:22;;;;;;;3.63;1.38;;;;;;;;;;4968490;28;20569;-82
2022/11/09 04:16:47;;;;;;;6.03;1.60;;;;;;;;;;4982589;28;20122;-82
2022/11/09 04:19:13;;;;;;;3.22;1.35;;;;;;;;;;4972649;28;20044;-83
2022/11/09 04:21:38;;;;;;;3.85;1.40;;;;;;;;;;4993423;28;20375;-83
2022/11/09 04:24:04;;;;;;;4.05;1.50;;;;;;;;;;4968061;28;20041;-81
2022/11/09 04:26:29;;;;;;;3.80;1.40;;;;;;;;;;4981395;28;20041;-81
2022/11/09 04:28:55;;;;;;;3.30;1.45;;;;;;;;;;4989430;28;20045;-81
2022/11/09 04:31:21;;;;;;;2.58;1.20;;;;;;;;;;4980655;28;20042;-82
2022/11/09 04:33:50;;;;;;;3.88;1.55;;;;;;;;;;4995699;28;20137;-82
2022/11/09 04:36:16;;;;;;;3.30;1.30;;;;;;;;;;4963293;28;20112;-81
2022/11/09 04:38:41;;;;;;;3.08;1.23;;;;;;;;;;4968604;28;20120;-82
2022/11/09 04:41:07;;;;;;;5.13;1.60;;;;;;;;;;4990751;28;20552;-81
2022/11/09 04:43:33;;;;;;;3.28;1.50;;;;;;;;;;4976553;28;20036;-81
2022/11/09 04:46:00;;;;;;;4.18;1.55;;;;;;;;;;4996368;28;20421;-81
2022/11/09 04:48:25;;;;;;;6.90;1.80;;;;;;;;;;4971024;28;20054;-82
2022/11/09 04:50:50;;;;;;;3.20;1.50;;;;;;;;;;4968437;28;20332;-81
2022/11/09 04:53:16;;;;;;;2.83;1.40;;;;;;;;;;4991137;28;20039;-82
2022/11/09 04:55:44;;;;;;;3.22;1.35;;;;;;;;;;4981863;28;20041;-81
2022/11/09 04:58:09;;;;;;;;;;;;;;;;;;4969316;28;20034;-81
2022/11/09 05:00:35;;;;;;;2.90;1.20;;;;;;;;;;4988616;28;20341;-81
2022/11/09 05:03:02;;;;;;;4.68;1.38;;;;;;;;;;4965037;28;20033;-83
2022/11/09 05:05:28;;;;;;;4.05;1.77;;;;;;;;;;4956254;28;20089;-81
2022/11/09 05:07:54;;;;;;;3.97;1.63;;;;;;;;;;4956144;28;20035;-81
2022/11/09 05:10:20;;;;;;;3.35;1.60;;;;;;;;;;4983381;28;20035;-82
2022/11/09 05:12:45;;;;;;;3.17;1.48;;;;;;;;;;4980661;28;20098;-82
2022/11/09 05:15:11;;;;;;;2.83;1.42;;;;;;;;;;4993631;28;20118;-82
2022/11/09 05:17:36;;;;;;;4.80;1.73;;;;;;;;;;4964082;28;20034;-82
2022/11/09 05:20:02;;;;;;;4.10;1.75;;;;;;;;;;4972278;28;20039;-82
2022/11/09 05:25:11;;;;;;;3.22;1.50;;;;;;;;;;4989689;28;20101;-83
2022/11/09 05:27:37;;;;;;;3.17;1.77;;;;;;;;;;4971718;28;20497;-82
2022/11/09 05:30:03;;;;;;;3.28;1.80;;;;;;;;;;4996665;28;20030;-82
2022/11/09 05:32:38;;;;;;;3.38;1.52;;;;;;;;;;4989289;28;20385;-82
2022/11/09 05:35:03;;;;;;;5.18;1.83;;;;;;;;;;4975596;28;20026;-83
2022/11/09 05:37:29;;;;;;;3.67;1.70;;;;;;;;;;4960086;28;20185;-83
2022/11/09 05:39:54;;;;;;;4.25;1.83;;;;;;;;;;4985070;28;20038;-82
2022/11/09 05:42:23;;;;;;;3.42;1.67;;;;;;;;;;4979366;28;20045;-82
2022/11/09 05:44:48;;;;;;;4.10;1.67;;;;;;;;;;4978816;28;20073;-82
2022/11/09 05:47:14;;;;;;;3.00;1.70;;;;;;;;;;4985522;28;20062;-82
2022/11/09 05:49:42;;;;;;;4.68;1.90;;;;;;;;;;4969824;28;20062;-83
2022/11/09 05:52:07;;;;;;;4.00;1.65;;;;;;;;;;4953996;28;20080;-82
2022/11/09 05:54:33;;;;;;;4.90;1.90;;;;;;;;;;4970118;28;20494;-83
2022/11/09 05:57:00;;;;;;;3.22;1.70;;;;;;;;;;4969136;28;20524;-83
2022/11/09 05:59:25;;;;;;;3.67;1.90;;;;;;;;;;4985502;28;20054;-82
2022/11/09 06:01:51;;;;;;;5.03;1.83;;;;;;;;;;4973568;28;20096;-82
2022/11/09 06:04:16;;;;;;;4.15;1.90;;;;;;;;;;4980999;28;20065;-82
2022/11/09 06:06:42;;;;;;;4.28;2.20;;;;;;;;;;4968392;28;20431;-82
2022/11/09 06:09:07;;;;;;;3.85;2.03;;;;;;;;;;4977018;28;20041;-81
2022/11/09 06:11:34;;;;;;;3.38;1.80;;;;;;;;;;4983847;28;20450;-82
2022/11/09 06:13:59;;;;;;;5.18;2.00;;;;;;;;;;4963613;28;20097;-82
2022/11/09 06:16:25;;;;;;;5.28;1.95;;;;;;;;;;4992567;28;20023;-80
2022/11/09 06:18:50;;;;;;;3.58;1.77;;;;;;;;;;4976188;28;20046;-82
2022/11/09 06:21:15;;;;;;;3.25;1.70;;;;;;;;;;4974824;28;20093;-82
2022/11/09 06:23:41;;;;;;;3.95;1.98;;;;;;;;;;4988516;28;20050;-81
2022/11/09 06:26:08;;;;;;;6.35;2.03;;;;;;;;;;4983800;28;20137;-82
2022/11/09 06:28:38;;;;;;;4.22;1.70;;;;;;;;;;4986749;28;20125;-82
2022/11/09 06:31:05;;;;;;;4.63;1.80;;;;;;;;;;4986665;28;20035;-82
2022/11/09 06:33:31;;;;;;;4.22;1.70;;;;;;;;;;4983515;28;20035;-82
2022/11/09 06:35:57;;;;;;;3.45;1.65;;;;;;;;;;4985825;28;20550;-82
2022/11/09 06:38:25;;;;;;;3.85;2.00;;;;;;;;;;4983054;28;20177;-81
2022/11/09 06:40:52;;;;;;;;;;;;;;;;;;4976558;28;20050;-81
2022/11/09 06:43:17;;;;;;;3.10;1.63;;;;;;;;;;4962895;28;19914;-81
2022/11/09 06:45:43;;;;;;;4.80;2.15;;;;;;;;;;4966232;28;20040;-81
2022/11/09 06:48:09;;;;;;;5.40;2.08;;;;;;;;;;4968559;28;20039;-81
2022/11/09 06:50:34;;;;;;;4.05;1.77;;;;;;;;;;4994499;28;20041;-81
2022/11/09 06:53:02;;;;;;;5.97;1.98;;;;;;;;;;4986885;28;20509;-84
2022/11/09 06:55:29;;;;;;;4.00;1.70;;;;;;;;;;4980463;28;20034;-83
2022/11/09 06:57:55;;;;;;;6.65;2.05;;;;;;;;;;4965336;28;20452;-82
2022/11/09 07:00:21;;;;;;;4.93;2.13;;;;;;;;;;4964741;28;20038;-82
2022/11/09 07:02:46;;;;;;;3.90;1.90;;;;;;;;;;4974749;28;20117;-82
2022/11/09 07:05:12;;;;;;;3.72;1.77;;;;;;;;;;4984137;28;20125;-82
2022/11/09 07:07:37;;;;;;;4.78;2.03;;;;;;;;;;4966300;28;20122;-82
2022/11/09 07:10:03;;;;;;;3.75;1.80;;;;;;;;;;4985801;28;20398;-82
2022/11/09 07:12:28;;;;;;;4.20;1.98;;;;;;;;;;4979582;28;21050;-82
2022/11/09 07:14:53;;;;;;;3.65;1.77;;;;;;;;;;4966443;28;20042;-82
2022/11/09 07:17:21;;;;;;;3.85;2.10;;;;;;;;;;4986891;28;20030;-82
2022/11/09 07:19:47;;;;;;;4.43;2.10;;;;;;;;;;4959315;28;20039;-82
2022/11/09 07:22:12;;;;;;;5.28;2.10;;;;;;;;;;4990107;28;20070;-82
2022/11/09 07:24:37;;;;;;;3.22;1.92;;;;;;;;;;4986939;28;20061;-82
2022/11/09 07:27:03;;;;;;;4.93;1.98;;;;;;;;;;4959146;28;20112;-82
2022/11/09 07:29:28;;;;;;;3.30;1.80;;;;;;;;;;4973217;28;20301;-82
2022/11/09 07:31:54;;;;;;;4.00;2.20;;;;;;;;;;4988020;28;20081;-82
2022/11/09 07:34:19;;;;;;;4.88;2.00;;;;;;;;;;4984583;28;20045;-82
2022/11/09 07:36:44;;;;;;;4.85;2.22;;;;;;;;;;4958696;28;20049;-82
2022/11/09 07:39:10;;;;;;;4.82;2.33;;;;;;;;;;4964017;28;20035;-82
2022/11/09 07:41:36;;;;;;;4.00;2.10;;;;;;;;;;4965602;28;20073;-82
2022/11/09 07:44:01;;;;;;;4.35;2.08;;;;;;;;;;4972665;28;20030;-82
2022/11/09 07:46:27;;;;;;;4.07;2.40;;;;;;;;;;4985018;28;20176;-82
2022/11/09 07:48:52;;;;;;;6.20;2.40;;;;;;;;;;4970143;28;20034;-82
2022/11/09 07:51:17;;;;;;;4.18;2.50;;;;;;;;;;4972711;28;20405;-82
2022/11/09 07:53:43;;;;;;;4.40;2.63;;;;;;;;;;4964950;28;20042;-82
2022/11/09 07:56:08;;;;;;;5.07;2.70;;;;;;;;;;4964555;28;20437;-82
2022/11/09 07:58:37;;;;;;;4.43;2.45;;;;;;;;;;4961149;28;20054;-82
2022/11/09 08:01:09;;;;;;;8.60;2.75;;;;;;;;;;4966961;28;20030;-81
2022/11/09 08:03:34;;;;;;;6.32;3.10;;;;;;;;;;4983894;28;20089;-81
2022/11/09 08:06:00;;;;;;;5.65;2.80;;;;;;;;;;4977252;28;20047;-81
2022/11/09 08:08:25;;;;;;;5.28;2.40;;;;;;;;;;4974420;28;20548;-82
2022/11/09 08:10:52;;;;;;;4.25;2.30;;;;;;;;;;4966221;28;20097;-82
2022/11/09 08:13:18;;;;;;;6.70;2.72;;;;;;;;;;4960965;28;20118;-82
2022/11/09 08:15:43;;;;;;;4.70;2.60;;;;;;;;;;4989342;28;20045;-83
2022/11/09 08:18:16;;;;;;;5.22;2.45;;;;;;;;;;4959237;28;20042;-82
2022/11/09 08:20:44;;;;;;;4.72;2.33;;;;;;;;;;4961409;28;20030;-82
2022/11/09 08:23:14;;;;;;;5.18;2.60;;;;;;;;;;4961372;28;20051;-81
2022/11/09 08:25:40;;;;;;;4.63;2.53;;;;;;;;;;4982384;28;20153;-82
2022/11/09 08:28:06;;;;;;;4.15;2.33;;;;;;;;;;4956695;28;20129;-82
2022/11/09 08:30:31;;;;;;;4.35;2.20;;;;;;;;;;4951024;28;20046;-83
2022/11/09 08:33:02;;;;;;;5.82;3.08;;;;;;;;;;4990110;28;20046;-84
2022/11/09 08:35:40;;;;;;;4.68;2.50;;;;;;;;;;4953275;28;20023;-83
2022/11/09 08:38:05;;;;;;;5.90;2.35;;;;;;;;;;4951523;28;20073;-83
2022/11/09 08:40:33;;;;;;;5.47;2.60;;;;;;;;;;4982622;28;20035;-84
2022/11/09 08:43:01;;;;;;;5.03;2.70;;;;;;;;;;4989247;28;20479;-83
2022/11/09 08:45:27;;;;;;;7.15;3.00;;;;;;;;;;4966629;28;20034;-83
2022/11/09 08:47:59;;;;;;;5.03;2.55;;;;;;;;;;4989616;28;20077;-83
2022/11/09 08:50:28;;;;;;;5.40;2.95;;;;;;;;;;4992233;28;20486;-83
2022/11/09 08:52:54;;;;;;;5.03;2.60;;;;;;;;;;4977426;28;20117;-83
2022/11/09 08:55:20;;;;;;;7.10;2.75;;;;;;;;;;4957036;28;20546;-83
2022/11/09 08:57:45;;;;;;;6.13;3.00;;;;;;;;;;4967032;28;20049;-83
2022/11/09 09:00:14;;;;;;;6.63;3.05;;;;;;;;;;4966555;28;20487;-83
2022/11/09 09:02:39;;;;;;;4.65;2.67;;;;;;;;;;4965591;28;20043;-85
2022/11/09 09:05:05;;;;;;;4.95;2.95;;;;;;;;;;4964410;28;20086;-82
2022/11/09 09:07:30;;;;;;;6.43;2.78;;;;;;;;;;4991471;28;20030;-84
2022/11/09 09:09:56;;;;;;;5.68;2.70;;;;;;;;;;4951751;28;20101;-83
2022/11/09 09:12:21;;;;;;;6.25;2.60;;;;;;;;;;4964195;28;20038;-84
2022/11/09 09:14:47;;;;;;;6.45;2.80;;;;;;;;;;4973599;28;20122;-84
2022/11/09 09:17:13;;;;;;;5.88;2.95;;;;;;;;;;4973012;28;20039;-84
2022/11/09 09:19:38;;;;;;;4.97;2.85;;;;;;;;;;4976682;28;20406;-85
2022/11/09 09:22:03;;;;;;;6.03;3.13;;;;;;;;;;4965314;28;20541;-83
2022/11/09 09:24:29;;;;;;;4.88;2.70;;;;;;;;;;4967789;28;20062;-82
2022/11/09 09:26:54;;;;;;;5.65;2.80;;;;;;;;;;4965110;28;20489;-84
2022/11/09 09:29:19;;;;;;;5.78;2.97;;;;;;;;;;4968562;28;20097;-83
2022/11/09 09:31:45;;;;;;;5.22;2.55;;;;;;;;;;4981961;28;20042;-84
2022/11/09 09:34:13;;;;;;;6.63;2.75;;;;;;;;;;4976161;28;20043;-83
2022/11/09 09:36:39;;;;;;;5.78;3.00;;;;;;;;;;4971037;28;20061;-84
2022/11/09 09:39:05;;;;;;;4.85;2.53;;;;;;;;;;4971009;28;20035;-83
2022/11/09 09:41:33;;;;;;;5.65;2.90;;;;;;;;;;4968976;28;20035;-84
2022/11/09 09:44:05;;;;;;;5.25;2.83;;;;;;;;;;4985337;28;20062;-83
2022/11/09 09:46:41;;;;;;;5.60;2.65;;;;;;;;;;4967556;28;20043;-84
2022/11/09 09:49:13;;;;;;;5.68;2.75;;;;;;;;;;4974253;28;20073;-83
2022/11/09 09:51:39;;;;;;;5.97;2.92;;;;;;;;;;4974367;28;20506;-84
2022/11/09 09:54:14;;;;;;;4.82;2.60;;;;;;;;;;4976842;28;20058;-84
2022/11/09 09:56:42;;;;;;;4.82;3.03;;;;;;;;;;4962916;28;20042;-83
2022/11/09 09:59:08;;;;;;;5.13;2.70;;;;;;;;;;4977025;28;20512;-84
2022/11/09 10:01:38;;;;;;;5.13;2.53;;;;;;;;;;4975572;28;20034;-84
2022/11/09 10:04:31;;;;;;;5.43;3.10;;;;;;;;;;4991524;28;20039;-83
2022/11/09 10:07:08;;;;;;;4.53;2.53;;;;;;;;;;4961032;28;20288;-84
2022/11/09 10:10:01;;;;;;;6.13;2.80;;;;;;;;;;4964760;28;20129;-84
2022/11/09 10:12:32;;;;;;;5.32;2.33;;;;;;;;;;4976274;28;20035;-83
2022/11/09 10:15:21;;;;;;;4.30;2.40;;;;;;;;;;4977916;28;20038;-83
2022/11/09 10:18:07;;;;;;;5.70;2.58;;;;;;;;;;4980019;28;20042;-83
2022/11/09 10:20:43;;;;;;;5.20;2.72;;;;;;;;;;4979404;28;20390;-84
2022/11/09 10:24:10;;;;;;;5.13;2.65;;;;;;;;;;4976257;28;20557;-84
2022/11/09 10:26:48;;;;;;;4.50;2.42;;;;;;;;;;4899417;29;20501;-82
2022/11/09 10:29:19;;;;;;;6.75;3.15;;;;;;;;;;4981842;28;20050;-84
2022/11/09 10:31:46;;;;;;;6.63;2.85;;;;;;;;;;4976998;28;20057;-83
2022/11/09 10:34:27;;;;;;;5.03;2.40;;;;;;;;;;4964257;28;20035;-84
2022/11/09 10:36:57;;;;;;;4.85;2.00;;;;;;;;;;4969544;28;20069;-84
2022/11/09 10:39:24;;;;;;;5.07;2.30;;;;;;;;;;4966667;28;20043;-81
2022/11/09 10:41:51;;;;;;;4.88;2.35;;;;;;;;;;4983730;28;20050;-84
2022/11/09 10:44:18;;;;;;;5.45;2.33;;;;;;;;;;4960872;28;20056;-85
2022/11/09 10:47:02;;;;;;;4.53;2.30;;;;;;;;;;4979579;28;20046;-84
2022/11/09 10:49:27;;;;;;;4.10;2.00;;;;;;;;;;4993042;28;20054;-84
2022/11/09 10:51:52;;;;;;;3.35;1.73;;;;;;;;;;4991252;28;20081;-84
2022/11/09 10:54:22;;;;;;;3.92;1.98;;;;;;;;;;4979030;28;20038;-83
2022/11/09 10:56:51;;;;;;;4.20;1.90;;;;;;;;;;4968022;28;20061;-83
2022/11/09 10:59:41;;;;;;;4.35;1.58;;;;;;;;;;4975349;28;20486;-83
2022/11/09 11:02:40;;;;;;;4.28;1.67;;;;;;;;;;4975106;28;20038;-83
2022/11/09 11:05:05;;;;;;;3.35;1.50;;;;;;;;;;4930907;28;20103;-84
2022/11/09 11:07:32;;;;;;;6.22;2.00;;;;;;;;;;4955025;28;20039;-84
2022/11/09 11:10:13;;;;;;;4.10;1.63;;;;;;;;;;4966545;28;20050;-84
2022/11/09 11:12:39;;;;;;;3.65;1.60;;;;;;;;;;4968490;28;20047;-84
2022/11/09 11:15:24;;;;;;;3.60;1.33;;;;;;;;;;4950460;28;20038;-83
2022/11/09 11:17:59;;;;;;;3.65;1.45;;;;;;;;;;4940343;28;20051;-84
2022/11/09 11:20:35;;;;;;;2.70;1.20;;;;;;;;;;4936693;28;20427;-85
2022/11/09 11:23:20;;;;;;;3.08;1.10;;;;;;;;;;4960675;28;20094;-84
2022/11/09 11:25:52;;;;;;;3.28;1.15;;;;;;;;;;4965933;28;20098;-83
2022/11/09 11:28:25;;;;;;;3.70;1.20;;;;;;;;;;4954913;28;20130;-82
2022/11/09 11:30:51;;;;;;;2.15;1.00;;;;;;;;;;4939928;28;20046;-83
2022/11/09 11:33:20;;;;;;;2.42;1.10;;;;;;;;;;4962061;28;20493;-83
2022/11/09 11:35:56;;;;;;;3.13;1.10;;;;;;;;;;4959670;28;20050;-84
2022/11/09 11:38:27;;;;;;;2.42;1.00;;;;;;;;;;4964766;28;20038;-84
2022/11/09 11:41:18;;;;;;;3.30;1.25;;;;;;;;;;4955793;28;20049;-83
2022/11/09 11:43:52;;;;;;;2.15;0.90;;;;;;;;;;4947901;28;20522;-84
2022/11/09 11:46:18;;;;;;;2.17;0.80;;;;;;;;;;4946700;28;20058;-84
2022/11/09 11:48:50;;;;;;;2.30;0.95;;;;;;;;;;4953798;28;20042;-84
2022/11/09 11:51:25;;;;;;;1.73;0.77;;;;;;;;;;4939993;28;20102;-83
2022/11/09 11:53:59;;;;;;;2.15;0.88;;;;;;;;;;4953443;28;20507;-84
2022/11/09 11:57:04;;;;;;;2.42;0.90;;;;;;;;;;4971134;28;20038;-84
2022/11/09 11:59:51;;;;;;;2.03;0.87;;;;;;;;;;4942466;28;20090;-83
2022/11/09 12:02:22;;;;;;;2.53;1.20;;;;;;;;;;4956177;28;20570;-83
2022/11/09 12:04:53;;;;;;;2.33;1.00;;;;;;;;;;4939763;28;20188;-83
2022/11/09 12:07:33;;;;;;;3.80;1.02;;;;;;;;;;4990625;28;20034;-84
2022/11/09 12:10:17;;;;;;;2.72;1.20;;;;;;;;;;4971731;28;20502;-84
2022/11/09 12:12:53;;;;;;;3.00;1.20;;;;;;;;;;4974364;28;20042;-84
2022/11/09 12:15:55;;;;;;;3.03;1.30;;;;;;;;;;4958453;28;20451;-84
2022/11/09 12:18:39;;;;;;;2.63;0.93;;;;;;;;;;4990645;28;20031;-84
2022/11/09 12:21:15;;;;;;;2.58;1.05;;;;;;;;;;4969443;28;20048;-84
2022/11/09 12:23:52;;;;;;;2.85;1.20;;;;;;;;;;4956836;28;20489;-84
2022/11/09 12:26:51;;;;;;;2.58;0.90;;;;;;;;;;4963153;28;20051;-85
2022/11/09 12:29:23;;;;;;;2.38;1.00;;;;;;;;;;4977239;28;20030;-83
2022/11/09 12:32:19;;;;;;;3.00;1.05;;;;;;;;;;4992397;28;20034;-84
2022/11/09 12:35:42;;;;;;;3.95;1.15;;;;;;;;;;4970516;28;20371;-83
2022/11/09 12:38:46;;;;;;;2.10;1.00;;;;;;;;;;4891191;29;20036;-84
2022/11/09 12:41:16;;;;;;;2.38;0.98;;;;;;;;;;4888999;29;20040;-83
2022/11/09 12:43:47;;;;;;;3.53;1.10;;;;;;;;;;4877480;29;20534;-84
2022/11/09 12:46:14;;;;;;;2.72;0.95;;;;;;;;;;4868496;29;20139;-84
2022/11/09 12:48:39;;;;;;;2.60;1.10;;;;;;;;;;4892230;29;20052;-84
2022/11/09 12:51:26;;;;;;;3.22;1.10;;;;;;;;;;4907920;29;20047;-84
2022/11/09 12:53:53;;;;;;;2.58;0.98;;;;;;;;;;4852851;29;20569;-85
2022/11/09 12:56:30;;;;;;;2.63;1.00;;;;;;;;;;4869215;29;20041;-84
2022/11/09 12:59:21;;;;;;;3.05;1.02;;;;;;;;;;4838353;29;20552;-83
2022/11/09 13:01:52;;;;;;;3.65;1.30;;;;;;;;;;4869004;29;20045;-84
2022/11/09 13:04:20;;;;;;;3.22;1.15;;;;;;;;;;4871496;29;20537;-84
2022/11/09 13:07:13;;;;;;;4.07;1.20;;;;;;;;;;4857962;29;20060;-84
2022/11/09 13:09:40;;;;;;;3.35;1.23;;;;;;;;;;4900589;29;20037;-84
2022/11/09 13:12:26;;;;;;;3.65;1.30;;;;;;;;;;4918942;29;20408;-83
2022/11/09 13:14:51;;;;;;;2.53;1.13;;;;;;;;;;4907565;29;20131;-83
2022/11/09 13:17:20;;;;;;;2.72;1.00;;;;;;;;;;4892690;29;20155;-84
2022/11/09 13:19:53;;;;;;;2.60;1.00;;;;;;;;;;4888200;29;20559;-83
2022/11/09 13:22:21;;;;;;;2.88;1.08;;;;;;;;;;4901406;29;20625;-83
2022/11/09 13:25:01;;;;;;;2.80;1.20;;;;;;;;;;4888042;29;20077;-84
2022/11/09 13:27:35;;;;;;;2.80;1.20;;;;;;;;;;4904603;29;20167;-83
2022/11/09 13:30:01;;;;;;;2.40;1.10;;;;;;;;;;4902302;28;20511;-85
2022/11/09 13:32:27;;;;;;;2.90;1.17;;;;;;;;;;4972139;28;20037;-84
2022/11/09 13:34:55;;;;;;;2.38;1.00;;;;;;;;;;4971262;28;20042;-84
2022/11/09 13:37:36;;;;;;;2.80;1.20;;;;;;;;;;4987013;28;20035;-84
2022/11/09 13:40:30;;;;;;;4.05;1.15;;;;;;;;;;4973391;28;20576;-84
2022/11/09 13:43:11;;;;;;;3.17;1.20;;;;;;;;;;4981807;28;20048;-84
2022/11/09 13:45:48;;;;;;;5.00;1.27;;;;;;;;;;4972980;28;20054;-84
2022/11/09 13:48:32;;;;;;;;;;;;;;;;;;4979501;28;20040;-83
2022/11/09 13:51:01;;;;;;;2.42;0.93;;;;;;;;;;4994432;28;19913;-84
2022/11/09 13:53:38;;;;;;;2.10;0.88;;;;;;;;;;4997012;28;20449;-81
2022/11/09 13:56:12;;;;;;;4.00;1.10;;;;;;;;;;4979791;28;20038;-81
2022/11/09 13:58:39;;;;;;;1.65;0.90;;;;;;;;;;4983517;28;20532;-81
2022/11/09 14:01:04;;;;;;;3.15;1.10;;;;;;;;;;4976771;28;20034;-81
2022/11/09 14:03:30;;;;;;;2.30;0.93;;;;;;;;;;4972876;28;20445;-80
2022/11/09 14:06:00;;;;;;;2.45;1.05;;;;;;;;;;4977096;28;20050;-81
2022/11/09 14:08:32;;;;;;;3.05;1.00;;;;;;;;;;4972507;28;20057;-81
2022/11/09 14:11:27;;;;;;;2.20;0.93;;;;;;;;;;4971824;28;20041;-81
2022/11/09 14:14:23;;;;;;;3.80;1.25;;;;;;;;;;4944430;28;20126;-81
2022/11/09 14:17:07;;;;;;;3.00;1.35;;;;;;;;;;4989815;28;20038;-81
2022/11/09 14:19:59;;;;;;;2.17;0.90;;;;;;;;;;4959480;28;20074;-82
2022/11/09 14:22:25;;;;;;;2.10;0.93;;;;;;;;;;4976903;28;20045;-81
2022/11/09 14:24:53;;;;;;;3.33;1.30;;;;;;;;;;4990890;28;20033;-81
2022/11/09 14:27:23;;;;;;;2.70;1.20;;;;;;;;;;4976054;28;20030;-81
2022/11/09 14:29:50;;;;;;;3.47;1.20;;;;;;;;;;4973157;28;20069;-84
2022/11/09 14:32:27;;;;;;;2.17;1.05;;;;;;;;;;4967712;28;20030;-84
2022/11/09 14:35:09;;;;;;;2.05;1.00;;;;;;;;;;4981605;28;20512;-83
2022/11/09 14:37:35;;;;;;;2.58;1.15;;;;;;;;;;4964495;28;20552;-84
2022/11/09 14:40:00;;;;;;;3.42;1.17;;;;;;;;;;4970471;28;20121;-84
2022/11/09 14:42:26;;;;;;;2.67;1.00;;;;;;;;;;4988620;28;20107;-84
2022/11/09 14:44:54;;;;;;;2.30;1.00;;;;;;;;;;4988354;28;20484;-83
2022/11/09 14:47:33;;;;;;;3.80;1.25;;;;;;;;;;4981986;28;20564;-84
2022/11/09 14:49:59;;;;;;;2.90;1.30;;;;;;;;;;4972895;28;20042;-84
2022/11/09 14:52:28;;;;;;;3.10;1.17;;;;;;;;;;4976208;28;20051;-84
2022/11/09 14:54:54;;;;;;;4.60;1.42;;;;;;;;;;4961241;28;20506;-84
2022/11/09 14:57:21;;;;;;;2.83;1.30;;;;;;;;;;4985881;28;20081;-83
2022/11/09 14:59:47;;;;;;;3.47;1.20;;;;;;;;;;4966905;28;20034;-82
2022/11/09 15:02:15;;;;;;;3.60;1.30;;;;;;;;;;4968301;28;20288;-83
2022/11/09 15:04:54;;;;;;;3.10;1.30;;;;;;;;;;4972196;28;20068;-84